Terminal Aerodrome Forecast
Issued by NWS Corpus Christi, TX

Home | Current Version | Previous Version | Text Only | Print | Product List | Glossary On
Versions: 1 2 3 4 5 6 7 8 9 10 11 12 13
779
FTUS44 KCRP 232339
TAFVCT
TAF
KVCT 232339Z 2400/2424 12015G20KT P6SM SCT080
     FM240400 12004KT P6SM SCT015 BKN250
      TEMPO 2410/2412 BKN015
     FM241500 04005KT P6SM SCT030
      TEMPO 2416/2418 BKN030
     FM241800 09012G18KT P6SM VCTS BKN040CB PROB30 2420/2423 5SM
      TSRA OVC040CB=

USA.gov is the U.S. government's official web portal to all federal, state and local government web resources and services.